Time;durP1;ratioP1;P1;durP2;ratioP2;P2;SDS_P1;SDS_P2;PMS_P1;PMS_P2;Temp;Humidity;BMP_temperature;BMP_pressure;BME280_temperature;BME280_humidity;BME280_pressure;Samples;Min_cycle;Max_cycle;Signal;HPM_P1;HPM_P2
2023/01/04 00:01:40;;;;;;;9.50;4.57;;;;;;;-144.47;91.27;52923.63;4988707;28;20388;-69
2023/01/04 00:04:06;;;;;;;9.70;4.20;;;;;;;-144.47;91.45;52947.47;4988636;28;20042;-67
2023/01/04 00:06:31;;;;;;;10.40;4.45;;;;;;;-144.47;91.54;52975.25;4988604;28;20144;-68
2023/01/04 00:08:56;;;;;;;10.13;4.78;;;;;;;-144.47;91.59;52959.38;4995737;28;20595;-69
2023/01/04 00:11:23;;;;;;;11.23;4.82;;;;;;;-144.47;91.63;52947.47;4988706;28;20022;-69
2023/01/04 00:13:50;;;;;;;12.77;4.18;;;;;;;-144.47;92.21;52959.38;4987849;28;20026;-68
2023/01/04 00:16:18;;;;;;;8.98;4.28;;;;;;;-144.47;92.21;52957.38;4997073;28;20018;-70
2023/01/04 00:18:44;;;;;;;9.40;4.05;;;;;;;-144.47;92.94;52959.38;4988999;28;20022;-71
2023/01/04 00:21:14;;;;;;;8.30;4.57;;;;;;;-144.47;92.69;52957.38;4988924;28;20095;-70
2023/01/04 00:23:42;;;;;;;11.77;4.20;;;;;;;-144.47;92.64;52953.41;4984739;28;20117;-67
2023/01/04 00:26:19;;;;;;;11.45;4.18;;;;;;;-144.47;92.80;52969.31;4989955;28;20045;-68
2023/01/04 00:28:45;;;;;;;7.75;3.92;;;;;;;-144.47;92.96;52957.38;4988811;28;20034;-69
2023/01/04 00:31:12;;;;;;;8.52;4.60;;;;;;;-144.47;92.83;52947.47;4987854;28;20022;-68
2023/01/04 00:33:38;;;;;;;9.23;4.72;;;;;;;-144.47;92.73;52941.50;4988448;28;20109;-67
2023/01/04 00:36:06;;;;;;;15.43;4.68;;;;;;;-144.47;92.48;52949.44;4988852;28;20122;-68
2023/01/04 00:38:32;;;;;;;8.00;4.00;;;;;;;-144.47;92.34;52969.31;4988343;28;20018;-69
2023/01/04 00:40:58;;;;;;;9.00;4.20;;;;;;;-144.47;92.78;52959.38;4988470;28;20060;-67
2023/01/04 00:43:24;;;;;;;12.82;4.45;;;;;;;-144.47;92.74;52959.38;4986817;28;20035;-68
2023/01/04 00:45:50;;;;;;;6.97;3.92;;;;;;;-144.47;92.67;52963.34;4987196;28;20022;-68
2023/01/04 00:48:15;;;;;;;9.13;4.70;;;;;;;-144.47;92.81;52947.47;4988418;28;20042;-70
2023/01/04 00:50:43;;;;;;;11.48;4.80;;;;;;;-144.47;93.29;52923.63;4985432;28;20641;-68
2023/01/04 00:53:09;;;;;;;7.65;4.50;;;;;;;-144.47;93.04;52955.41;5006179;23;20046;-67
2023/01/04 00:55:34;;;;;;;7.45;3.92;;;;;;;-144.47;92.97;52967.31;5009634;28;20076;-68
2023/01/04 00:57:59;;;;;;;9.35;4.40;;;;;;;-144.47;93.28;52951.44;5008809;28;20029;-67
2023/01/04 01:00:25;;;;;;;12.38;4.20;;;;;;;-144.47;93.27;52959.38;5012390;28;20033;-68
2023/01/04 01:02:50;;;;;;;9.90;4.93;;;;;;;-144.47;92.81;52941.50;5011403;28;20100;-68
2023/01/04 01:05:16;;;;;;;8.13;4.50;;;;;;;-144.47;92.81;52949.44;5009248;28;20040;-69
2023/01/04 01:07:41;;;;;;;9.18;4.50;;;;;;;-144.47;92.71;52961.34;5007570;28;20022;-68
2023/01/04 01:10:07;;;;;;;11.85;4.93;;;;;;;-144.47;92.71;52959.38;5009017;28;20076;-66
2023/01/04 01:12:32;;;;;;;14.07;5.80;;;;;;;-144.47;92.72;52941.50;5005812;28;20083;-68
2023/01/04 01:14:57;;;;;;;9.88;5.05;;;;;;;-144.47;92.63;52977.25;5009241;28;20093;-67
2023/01/04 01:17:23;;;;;;;13.70;4.80;;;;;;;-144.47;92.91;52943.47;5008290;28;20057;-68
2023/01/04 01:19:48;;;;;;;9.15;4.30;;;;;;;-144.47;92.91;52959.38;5009544;28;20079;-67
2023/01/04 01:22:13;;;;;;;13.98;4.43;;;;;;;-144.47;92.91;52969.31;5009492;28;20021;-70
2023/01/04 01:24:39;;;;;;;11.00;5.10;;;;;;;-144.47;92.16;52963.34;5008984;28;20476;-67
2023/01/04 01:27:04;;;;;;;8.63;4.93;;;;;;;-144.47;91.64;52947.47;5008375;28;20093;-69
2023/01/04 01:29:30;;;;;;;13.70;5.22;;;;;;;-144.47;91.64;52953.41;5008724;28;20081;-69
2023/01/04 01:31:55;;;;;;;9.90;4.75;;;;;;;-144.47;91.72;52965.34;5008643;28;20026;-68
2023/01/04 01:34:21;;;;;;;10.75;4.53;;;;;;;-144.47;92.07;52947.47;5008577;28;20022;-68
2023/01/04 01:36:46;;;;;;;11.60;4.18;;;;;;;-144.47;92.31;52957.38;5008774;28;20075;-67
2023/01/04 01:39:12;;;;;;;9.48;4.60;;;;;;;-144.47;92.37;52955.41;5009372;28;20095;-68
2023/01/04 01:41:37;;;;;;;13.73;5.53;;;;;;;-144.47;92.44;52949.44;5008965;28;20550;-66
2023/01/04 01:44:24;;;;;;;8.52;5.03;;;;;;;-144.47;92.81;52957.38;5008791;28;20044;-68
2023/01/04 01:46:53;;;;;;;10.45;4.18;;;;;;;-144.47;92.66;52965.34;4977761;28;20068;-65
2023/01/04 01:49:29;;;;;;;12.98;5.38;;;;;;;-144.47;93.18;52933.56;5008962;28;20022;-66
2023/01/04 01:51:56;;;;;;;7.82;4.93;;;;;;;-144.47;93.30;52957.38;5008922;28;20072;-69
2023/01/04 01:54:31;;;;;;;9.65;5.00;;;;;;;-144.47;93.73;52981.22;5008509;28;20030;-65
2023/01/04 01:57:00;;;;;;;13.98;5.65;;;;;;;-144.47;93.68;52975.25;5009961;28;20036;-68
2023/01/04 01:59:26;;;;;;;;;;;;;;;-144.47;93.69;52975.25;5012034;28;20030;-69
2023/01/04 02:01:51;;;;;;;14.55;5.00;;;;;;;-144.47;93.71;52965.34;5012885;28;19917;-66
2023/01/04 02:04:17;;;;;;;11.60;5.65;;;;;;;-144.47;93.92;52953.41;5011817;28;20034;-68
2023/01/04 02:06:47;;;;;;;9.52;5.50;;;;;;;-144.47;93.41;52967.31;5011173;28;20387;-70
2023/01/04 02:09:14;;;;;;;13.82;5.22;;;;;;;-144.47;93.31;52949.44;5012877;28;20036;-68
2023/01/04 02:11:39;;;;;;;10.85;5.32;;;;;;;-144.47;93.30;52959.38;5002978;28;20027;-68
2023/01/04 02:17:13;;;;;;;10.90;5.22;;;;;;;-144.47;93.15;52983.22;5012160;28;20121;-69
2023/01/04 02:20:03;;;;;;;11.82;5.38;;;;;;;-144.47;93.15;52967.31;5002331;28;20027;-67
2023/01/04 02:22:59;;;;;;;13.82;4.93;;;;;;;-144.47;93.33;52953.41;5009158;28;20101;-69
2023/01/04 02:26:14;;;;;;;9.60;5.53;;;;;;;-144.47;93.04;52961.34;5011681;28;20519;-67
2023/01/04 02:29:17;;;;;;;10.88;4.80;;;;;;;-144.47;92.91;52947.47;4950601;29;20058;-69
2023/01/04 02:32:01;;;;;;;9.60;4.72;;;;;;;-144.47;93.09;52965.34;4950563;29;20038;-69
2023/01/04 02:35:14;;;;;;;9.15;4.90;;;;;;;-144.47;93.02;52979.22;5001178;28;20084;-68
2023/01/04 02:37:47;;;;;;;12.65;5.45;;;;;;;-144.47;93.11;52963.34;4999361;28;20042;-69
2023/01/04 02:40:37;;;;;;;11.18;4.38;;;;;;;-144.47;93.08;52929.59;5011838;28;20037;-68
2023/01/04 02:46:04;;;;;;;11.10;5.03;;;;;;;-144.47;92.53;52955.41;5010985;28;20029;-68
2023/01/04 02:51:35;;;;;;;10.10;4.82;;;;;;;-144.47;92.76;52941.50;5012233;28;20041;-70
2023/01/04 02:54:08;;;;;;;10.05;4.05;;;;;;;-144.47;92.81;52923.63;5010698;28;20025;-68
2023/01/04 02:56:51;;;;;;;13.20;4.55;;;;;;;-144.47;92.55;52963.34;5010516;28;20026;-67
2023/01/04 02:59:32;;;;;;;10.07;4.85;;;;;;;-144.47;92.93;52975.25;5009907;28;20109;-69
2023/01/04 03:08:31;;;;;;;9.13;4.53;;;;;;;-144.47;92.73;52939.50;5010147;28;20088;-69
2023/01/04 03:11:04;;;;;;;12.02;4.40;;;;;;;-144.47;93.03;52963.34;5008093;28;20018;-68
2023/01/04 03:13:34;;;;;;;8.48;4.65;;;;;;;-144.47;93.00;52989.16;5010903;28;20029;-67
2023/01/04 03:16:06;;;;;;;8.98;4.65;;;;;;;-144.47;92.95;52959.38;5010356;28;20033;-66
2023/01/04 03:18:40;;;;;;;8.95;4.57;;;;;;;-144.47;92.80;52963.34;5010743;28;20030;-68
2023/01/04 03:21:08;;;;;;;9.40;4.65;;;;;;;-144.47;93.01;52963.34;5011488;28;20026;-70
2023/01/04 03:35:21;;;;;;;9.75;4.93;;;;;;;-144.47;92.76;52949.44;5010794;28;20088;-68
2023/01/04 03:49:56;;;;;;;13.15;4.40;;;;;;;-144.47;93.08;52963.34;5010567;28;20083;-68
2023/01/04 03:52:25;;;;;;;7.55;3.35;;;;;;;-144.47;92.91;52959.38;5011037;28;20049;-68
2023/01/04 03:54:52;;;;;;;8.68;5.05;;;;;;;-144.47;92.41;53003.06;5009751;28;20026;-68
2023/01/04 03:57:18;;;;;;;12.65;4.40;;;;;;;-144.47;91.94;52955.41;5008640;28;20021;-68
2023/01/04 03:59:50;;;;;;;10.95;4.28;;;;;;;-144.47;91.73;52963.34;5009327;28;20034;-70
2023/01/04 04:02:22;;;;;;;8.43;4.28;;;;;;;-144.47;91.31;52943.47;5010385;28;20021;-69
2023/01/04 04:10:16;;;;;;;11.40;5.50;;;;;;;-144.47;91.02;52971.28;5010413;28;20080;-67
2023/01/04 04:12:41;;;;;;;9.02;4.10;;;;;;;-144.47;90.88;52963.34;5007242;28;20046;-69
2023/01/04 04:15:07;;;;;;;10.88;4.00;;;;;;;-144.47;90.78;52939.50;5009896;28;20030;-69
2023/01/04 04:17:32;;;;;;;8.82;4.05;;;;;;;-144.47;90.82;52971.28;5009526;28;20115;-70
2023/01/04 04:19:57;;;;;;;9.30;4.05;;;;;;;-144.47;90.85;52951.44;5009572;28;20475;-67
2023/01/04 04:22:23;;;;;;;13.60;4.10;;;;;;;-144.47;90.94;52931.56;5006526;28;20057;-68
2023/01/04 04:24:48;;;;;;;10.20;3.65;;;;;;;-144.47;90.83;52941.50;5009595;28;20022;-70
2023/01/04 04:27:14;;;;;;;8.18;3.78;;;;;;;-144.47;90.92;52931.56;5009803;28;20495;-68
2023/01/04 04:29:39;;;;;;;10.48;4.22;;;;;;;-144.47;91.07;52949.44;5009296;28;20546;-68
2023/01/04 04:32:04;;;;;;;10.57;3.92;;;;;;;-144.47;91.30;52971.28;5010001;28;20380;-69
2023/01/04 04:34:29;;;;;;;7.10;3.60;;;;;;;-144.47;91.26;52957.38;5009815;28;20146;-70
2023/01/04 04:36:55;;;;;;;8.82;4.07;;;;;;;-144.47;91.34;52937.53;5010092;28;20026;-68
2023/01/04 04:39:20;;;;;;;8.88;4.10;;;;;;;-144.47;91.45;52971.28;5010195;28;20036;-68
2023/01/04 04:41:46;;;;;;;9.38;3.67;;;;;;;-144.47;91.18;52931.56;5012923;28;20030;-65
2023/01/04 04:44:17;;;;;;;6.80;2.97;;;;;;;-144.47;90.69;52961.34;5018617;28;20454;-69
2023/01/04 04:46:43;;;;;;;7.07;3.17;;;;;;;-144.47;90.23;52943.47;5026840;28;20057;-69
2023/01/04 04:49:10;;;;;;;10.75;2.97;;;;;;;-144.47;89.78;52971.28;5030114;28;20018;-68
2023/01/04 04:51:36;;;;;;;6.53;3.25;;;;;;;-144.47;89.58;52949.44;5024509;28;20033;-67
2023/01/04 04:54:03;;;;;;;6.85;3.05;;;;;;;-144.47;89.54;52951.44;5010130;28;20022;-67
2023/01/04 04:56:28;;;;;;;8.60;3.10;;;;;;;-144.47;89.05;52945.47;5008752;28;20029;-69
2023/01/04 04:58:54;;;;;;;5.95;2.83;;;;;;;-144.47;88.78;52951.44;5008817;28;20026;-67
2023/01/04 05:01:19;;;;;;;8.13;2.65;;;;;;;-144.47;88.77;52937.53;5008399;28;20053;-68
2023/01/04 05:03:45;;;;;;;6.22;3.38;;;;;;;-144.47;88.42;52957.38;5008649;28;20120;-65
2023/01/04 05:06:10;;;;;;;6.72;2.40;;;;;;;-144.47;88.69;52933.56;5009323;28;20021;-69
2023/01/04 05:08:36;;;;;;;10.38;3.03;;;;;;;-144.47;88.63;52951.44;5009125;28;20537;-67
2023/01/04 05:11:12;;;;;;;7.60;2.75;;;;;;;-144.47;88.72;52947.47;5007552;28;20112;-67
2023/01/04 05:13:37;;;;;;;6.50;2.58;;;;;;;-144.47;88.82;52939.50;5008938;28;20022;-69
2023/01/04 05:16:04;;;;;;;6.20;2.42;;;;;;;-144.47;88.44;52943.47;5008888;28;20026;-69
2023/01/04 05:18:29;;;;;;;5.55;2.50;;;;;;;-144.47;88.31;52957.38;5009074;28;20022;-67
2023/01/04 05:20:55;;;;;;;5.93;2.42;;;;;;;-144.47;88.22;52945.47;5009479;28;20113;-68
2023/01/04 05:23:20;;;;;;;7.43;2.55;;;;;;;-144.47;88.29;52931.56;5007324;28;20104;-68
2023/01/04 05:25:51;;;;;;;9.32;2.67;;;;;;;-144.47;88.14;52905.75;5008759;28;20033;-69
2023/01/04 05:28:17;;;;;;;5.35;2.30;;;;;;;-144.47;87.92;52929.59;5008510;28;20045;-66
2023/01/04 05:30:55;;;;;;;5.05;2.50;;;;;;;-144.47;87.49;52943.47;5009034;28;20395;-68
2023/01/04 05:33:26;;;;;;;3.80;1.90;;;;;;;-144.47;87.42;52933.56;5013154;28;20060;-68
2023/01/04 05:35:52;;;;;;;7.07;2.53;;;;;;;-144.47;87.19;52929.59;5014338;28;20032;-68
2023/01/04 05:38:19;;;;;;;5.30;2.70;;;;;;;-144.47;86.98;52927.59;5012745;28;20030;-67
2023/01/04 05:40:45;;;;;;;5.68;2.22;;;;;;;-144.47;86.82;52921.63;5013451;28;20030;-69
2023/01/04 05:43:12;;;;;;;6.50;2.50;;;;;;;-144.47;86.32;52909.72;5012272;28;20385;-69
2023/01/04 05:45:38;;;;;;;6.28;2.78;;;;;;;-144.47;85.91;52927.59;5013077;28;20033;-67
2023/01/04 05:48:03;;;;;;;4.40;2.28;;;;;;;-144.47;85.47;52949.44;5012678;28;20026;-69
2023/01/04 05:50:29;;;;;;;9.45;2.58;;;;;;;-144.47;84.70;52921.63;5012617;28;20022;-67
2023/01/04 05:52:54;;;;;;;5.88;3.05;;;;;;;-144.47;84.62;52941.50;5010429;28;20402;-71
2023/01/04 05:55:20;;;;;;;5.47;2.63;;;;;;;-144.47;84.29;52905.75;5012380;28;20061;-66
2023/01/04 05:57:45;;;;;;;4.85;2.75;;;;;;;-144.47;84.08;52907.72;5009405;28;20321;-67
2023/01/04 06:00:12;;;;;;;5.80;3.00;;;;;;;-144.47;83.94;52931.56;5011998;28;20054;-69
2023/01/04 06:02:38;;;;;;;9.55;2.88;;;;;;;-144.47;83.61;52929.59;5010321;28;20121;-68
2023/01/04 06:05:04;;;;;;;7.80;3.30;;;;;;;-144.47;83.71;52919.66;5011840;28;20022;-69
2023/01/04 06:07:29;;;;;;;7.72;2.97;;;;;;;-144.47;83.70;52927.59;5011793;28;20184;-69
2023/01/04 06:09:55;;;;;;;6.78;2.80;;;;;;;-144.47;83.59;52925.59;5011768;28;20113;-71
2023/01/04 06:12:21;;;;;;;8.65;3.70;;;;;;;-144.47;83.47;52901.78;5011175;28;20022;-69
2023/01/04 06:14:46;;;;;;;8.57;2.97;;;;;;;-144.47;83.74;52907.72;5010356;28;20517;-71
2023/01/04 06:17:11;;;;;;;10.25;3.75;;;;;;;-144.47;83.25;52883.91;5006015;28;20112;-69
2023/01/04 06:19:37;;;;;;;6.35;2.92;;;;;;;-144.47;82.60;52927.59;5007605;28;20705;-65
2023/01/04 06:22:03;;;;;;;11.45;3.92;;;;;;;-144.47;83.03;52911.69;5004866;28;20060;-68
2023/01/04 06:24:28;;;;;;;7.80;3.08;;;;;;;-144.47;82.29;52883.91;5009218;28;20022;-69
2023/01/04 06:26:53;;;;;;;6.82;3.03;;;;;;;-144.47;82.44;52929.59;5002998;28;20803;-69
2023/01/04 06:29:19;;;;;;;8.25;3.45;;;;;;;-144.47;82.27;52917.66;5003109;28;20041;-66
2023/01/04 06:31:44;;;;;;;5.75;2.97;;;;;;;-144.47;82.55;52937.53;5008780;28;20049;-69
2023/01/04 06:34:11;;;;;;;9.77;3.70;;;;;;;-144.47;82.42;52919.66;5009045;28;20029;-68
2023/01/04 06:36:36;;;;;;;7.00;3.08;;;;;;;-144.47;82.54;52887.88;5003707;28;20041;-65
2023/01/04 06:39:01;;;;;;;7.55;3.42;;;;;;;-144.47;82.73;52903.75;5009651;28;20034;-67
2023/01/04 06:41:27;;;;;;;8.23;3.50;;;;;;;-144.47;82.59;52923.63;5011439;28;20026;-69
2023/01/04 06:43:52;;;;;;;10.50;3.92;;;;;;;-144.47;83.18;52941.50;5011414;28;20435;-67
2023/01/04 06:46:18;;;;;;;7.32;3.65;;;;;;;-144.47;83.50;52903.75;5009731;28;20026;-67
2023/01/04 06:48:43;;;;;;;10.48;3.67;;;;;;;-144.47;83.75;52899.78;5011060;28;20028;-69
2023/01/04 06:51:09;;;;;;;7.18;3.95;;;;;;;-144.47;84.31;52875.94;5011573;28;20499;-69
2023/01/04 06:53:34;;;;;;;7.22;3.63;;;;;;;-144.47;84.34;52881.91;5012163;28;20038;-67
2023/01/04 06:56:00;;;;;;;9.95;3.63;;;;;;;-144.47;84.76;52897.81;5010203;28;20026;-67
2023/01/04 06:58:25;;;;;;;7.32;4.00;;;;;;;-144.47;84.73;52911.69;5009582;28;20132;-65
2023/01/04 07:00:52;;;;;;;6.72;3.55;;;;;;;-144.47;85.38;52889.84;5007662;28;20034;-69
2023/01/04 07:03:17;;;;;;;12.57;3.58;;;;;;;-144.47;85.50;52883.91;5006045;28;20033;-65
2023/01/04 07:05:43;;;;;;;8.43;3.50;;;;;;;-144.47;85.23;52923.63;5011575;28;20017;-66
2023/01/04 07:08:09;;;;;;;6.50;3.50;;;;;;;-144.47;85.11;52921.63;5008756;28;20026;-67
2023/01/04 07:10:35;;;;;;;7.15;3.50;;;;;;;-144.47;84.98;52901.78;5006100;28;20100;-69
2023/01/04 07:13:00;;;;;;;6.55;3.17;;;;;;;-144.47;85.05;52901.78;5010966;28;20022;-68
2023/01/04 07:15:26;;;;;;;6.95;3.42;;;;;;;-144.47;86.77;52871.97;5010451;28;20394;-69
2023/01/04 07:17:51;;;;;;;8.95;3.53;;;;;;;-144.47;84.84;52909.72;5008380;28;20091;-70
2023/01/04 07:20:17;;;;;;;7.40;2.92;;;;;;;-144.47;84.66;52891.84;5009053;28;20045;-69
2023/01/04 07:22:42;;;;;;;6.07;2.78;;;;;;;-144.47;83.76;52897.81;4993080;28;20022;-70
2023/01/04 07:25:08;;;;;;;5.32;2.50;;;;;;;-144.47;82.92;52905.75;5010041;28;20030;-68
2023/01/04 07:27:33;;;;;;;9.95;2.95;;;;;;;-144.47;83.24;52901.78;5010477;28;20052;-69
2023/01/04 07:29:59;;;;;;;5.43;2.63;;;;;;;-144.47;82.63;52893.81;5010527;28;20026;-69
2023/01/04 07:32:25;;;;;;;5.93;3.20;;;;;;;-144.47;82.43;52903.75;5009946;28;20113;-66
2023/01/04 07:34:50;;;;;;;8.55;2.83;;;;;;;-144.47;83.06;52901.78;5008678;28;20318;-68
2023/01/04 07:37:16;;;;;;;11.77;2.35;;;;;;;-144.47;82.99;52909.72;5009996;28;20034;-69
2023/01/04 07:39:42;;;;;;;5.25;2.75;;;;;;;-144.47;82.86;52915.69;5009950;28;20137;-68
2023/01/04 07:42:09;;;;;;;5.97;2.80;;;;;;;-144.47;83.15;52899.78;5010458;28;20025;-68
2023/01/04 07:44:34;;;;;;;12.15;3.38;;;;;;;-144.47;83.51;52927.59;5010055;28;20022;-65
2023/01/04 07:46:59;;;;;;;6.55;3.55;;;;;;;-144.47;83.91;52921.63;5009888;28;20176;-69
2023/01/04 07:49:25;;;;;;;8.45;2.88;;;;;;;-144.47;83.82;52913.69;5010426;28;20087;-68
2023/01/04 07:51:50;;;;;;;6.03;2.88;;;;;;;-144.47;84.26;52915.69;5009922;28;20038;-68
2023/01/04 07:54:17;;;;;;;11.38;3.08;;;;;;;-144.47;83.95;52933.56;5009709;28;20120;-69
2023/01/04 07:56:43;;;;;;;6.55;2.90;;;;;;;-144.47;84.20;52897.81;5009860;28;20037;-68
2023/01/04 07:59:09;;;;;;;7.82;2.75;;;;;;;-144.47;83.91;52915.69;5008517;28;20107;-67
2023/01/04 08:01:37;;;;;;;4.20;2.50;;;;;;;-144.47;84.16;52897.81;5009956;28;20033;-69
2023/01/04 08:04:06;;;;;;;5.05;2.63;;;;;;;-144.47;84.16;52925.59;4999406;28;20030;-69
2023/01/04 08:06:32;;;;;;;6.03;2.78;;;;;;;-144.47;84.27;52897.81;5008940;28;20033;-69
2023/01/04 08:08:58;;;;;;;4.65;2.42;;;;;;;-144.47;84.13;52909.72;5007482;28;20034;-69
2023/01/04 08:11:24;;;;;;;7.13;2.67;;;;;;;-144.47;84.56;52895.81;5009183;28;20064;-68
2023/01/04 08:13:50;;;;;;;5.78;2.72;;;;;;;-144.47;84.85;52913.69;5009863;28;20030;-69
2023/01/04 08:16:30;;;;;;;6.85;2.83;;;;;;;-144.47;84.46;52909.72;5008227;28;20476;-68
2023/01/04 08:18:57;;;;;;;6.47;2.50;;;;;;;-144.47;83.92;52907.72;5010000;28;20040;-68
2023/01/04 08:21:23;;;;;;;5.22;2.60;;;;;;;-144.47;83.63;52893.81;5009230;28;20081;-69
2023/01/04 08:23:49;;;;;;;6.15;2.53;;;;;;;-144.47;83.96;52899.78;5008785;28;20026;-70
2023/01/04 08:26:15;;;;;;;4.32;2.65;;;;;;;-144.47;84.00;52915.69;5009831;28;20029;-68
2023/01/04 08:28:41;;;;;;;8.48;2.60;;;;;;;-144.47;84.58;52917.66;5009436;28;20049;-68
2023/01/04 08:31:13;;;;;;;6.78;2.78;;;;;;;-144.47;84.91;52891.84;5009064;28;20033;-67
2023/01/04 08:33:39;;;;;;;6.80;2.72;;;;;;;-144.47;84.06;52915.69;5007543;28;20026;-67
2023/01/04 08:36:07;;;;;;;6.20;2.80;;;;;;;-144.47;84.32;52903.75;5009913;28;20041;-68
2023/01/04 08:38:32;;;;;;;3.75;2.45;;;;;;;-144.47;83.04;52887.88;4996910;28;20081;-68
2023/01/04 08:40:57;;;;;;;9.07;2.83;;;;;;;-144.47;82.75;52919.66;5008420;28;20077;-70
2023/01/04 08:43:23;;;;;;;6.70;2.40;;;;;;;-144.47;82.74;52881.91;5009948;28;20049;-69
2023/01/04 08:45:48;;;;;;;5.78;2.10;;;;;;;-144.47;82.39;52889.84;5009628;28;20014;-66
2023/01/04 08:48:14;;;;;;;5.68;2.15;;;;;;;-144.47;82.54;52931.56;5008977;28;20037;-70
2023/01/04 08:50:39;;;;;;;4.38;2.00;;;;;;;-144.47;82.60;52907.72;5010708;28;20066;-67
2023/01/04 08:53:05;;;;;;;5.68;2.50;;;;;;;-144.47;82.77;52907.72;5009832;28;20502;-69
2023/01/04 08:55:31;;;;;;;6.50;2.38;;;;;;;-144.47;83.04;52893.81;5010081;28;20026;-68
2023/01/04 08:57:58;;;;;;;5.18;2.63;;;;;;;-144.47;82.75;52897.81;5008642;28;20026;-66
2023/01/04 09:00:24;;;;;;;4.68;2.25;;;;;;;-144.47;82.39;52899.78;5010088;28;20017;-68
2023/01/04 09:02:49;;;;;;;5.18;2.30;;;;;;;-144.47;82.59;52899.78;5004373;28;20032;-66
2023/01/04 09:05:15;;;;;;;9.48;2.30;;;;;;;-144.47;82.50;52889.84;5002447;28;20121;-71
2023/01/04 09:07:40;;;;;;;5.57;2.65;;;;;;;-144.47;82.63;52909.72;5013117;28;20037;-68
2023/01/04 09:10:06;;;;;;;7.05;2.20;;;;;;;-144.47;82.39;52905.75;5014610;28;20026;-66
2023/01/04 09:12:31;;;;;;;6.03;2.28;;;;;;;-144.47;82.16;52903.75;5013963;28;20029;-69
2023/01/04 09:14:57;;;;;;;6.45;2.75;;;;;;;-144.47;81.63;52919.66;5014572;28;20466;-66
2023/01/04 09:17:23;;;;;;;4.75;1.88;;;;;;;-144.47;81.54;52873.97;5013564;28;20050;-70
2023/01/04 09:19:48;;;;;;;5.40;2.13;;;;;;;-144.47;81.61;52860.06;5014788;28;20072;-65
2023/01/04 09:22:14;;;;;;;4.53;2.00;;;;;;;-144.47;81.35;52891.84;5013509;28;20025;-68
2023/01/04 09:24:39;;;;;;;3.63;1.83;;;;;;;-144.47;81.50;52895.81;5013487;28;20029;-68
2023/01/04 09:27:04;;;;;;;3.10;1.60;;;;;;;-144.47;80.49;52891.84;5013040;28;20030;-69
2023/01/04 09:29:30;;;;;;;7.03;1.83;;;;;;;-144.47;80.22;52895.81;5013034;28;20104;-69
2023/01/04 09:31:55;;;;;;;2.35;1.40;;;;;;;-144.47;80.41;52879.94;5012218;28;20053;-67
2023/01/04 09:34:21;;;;;;;2.75;1.40;;;;;;;-144.47;80.10;52883.91;5011574;28;20048;-68
2023/01/04 09:36:51;;;;;;;5.40;1.40;;;;;;;-144.47;80.00;52897.81;5011161;28;20044;-68
2023/01/04 09:39:16;;;;;;;10.23;1.50;;;;;;;-144.47;79.78;52899.78;5012963;28;20021;-70
2023/01/04 09:41:51;;;;;;;2.63;1.27;;;;;;;-144.47;79.69;52883.91;5011725;28;20033;-69
2023/01/04 09:44:27;;;;;;;1.95;1.13;;;;;;;-144.47;79.71;52903.75;5012852;28;20028;-67
2023/01/04 09:46:58;;;;;;;1.85;1.05;;;;;;;-144.47;79.36;52883.91;5012746;28;20032;-69
2023/01/04 09:49:38;;;;;;;1.38;0.98;;;;;;;-144.47;78.98;52873.97;5012996;28;20021;-67
2023/01/04 09:52:03;;;;;;;2.30;1.00;;;;;;;-144.47;79.23;52891.84;5013101;28;20067;-69
2023/01/04 09:54:44;;;;;;;2.88;1.33;;;;;;;-144.47;78.72;52917.66;5012876;28;20578;-69
2023/01/04 09:57:28;;;;;;;1.90;1.10;;;;;;;-144.47;78.60;52883.91;5003563;28;20042;-69
2023/01/04 10:00:09;;;;;;;2.53;1.30;;;;;;;-144.47;78.22;52885.88;5014163;28;20080;-69
2023/01/04 10:02:46;;;;;;;1.70;1.10;;;;;;;-144.47;77.75;52871.97;5016616;28;20057;-70
2023/01/04 10:05:32;;;;;;;4.10;1.40;;;;;;;-144.47;77.75;52864.03;5004374;28;20098;-68
2023/01/04 10:07:57;;;;;;;2.33;1.20;;;;;;;-144.47;78.07;52887.88;5012384;28;20014;-69
2023/01/04 10:10:44;;;;;;;2.90;1.08;;;;;;;-144.47;77.66;52870.00;5012741;28;20061;-65
2023/01/04 10:13:34;;;;;;;2.05;1.23;;;;;;;-144.47;77.59;52881.91;5012318;28;20180;-67
2023/01/04 10:16:14;;;;;;;4.13;1.23;;;;;;;-144.47;77.32;52889.84;5012003;28;20188;-69
2023/01/04 10:18:46;;;;;;;2.70;1.33;;;;;;;-144.47;77.26;52887.88;5011639;28;20472;-69
2023/01/04 10:21:15;;;;;;;8.63;1.38;;;;;;;-144.47;77.42;52883.91;5013022;28;20076;-68
2023/01/04 10:24:11;;;;;;;15.02;1.40;;;;;;;-144.47;77.39;52860.06;5010554;28;20022;-66
2023/01/04 10:26:42;;;;;;;4.25;1.35;;;;;;;-144.47;77.28;52905.75;5011306;28;20032;-68
2023/01/04 10:29:33;;;;;;;4.97;1.30;;;;;;;-144.47;77.10;52852.13;5011040;28;20092;-68
2023/01/04 10:32:31;;;;;;;2.33;1.20;;;;;;;-144.47;77.28;52885.88;5010950;28;20100;-66
2023/01/04 10:34:56;;;;;;;3.70;1.33;;;;;;;-144.47;77.19;52883.91;4997206;28;20049;-68
2023/01/04 10:37:33;;;;;;;4.35;1.98;;;;;;;-144.47;77.27;52887.88;5011732;28;20021;-68
2023/01/04 10:39:59;;;;;;;6.22;1.77;;;;;;;-144.47;77.18;52871.97;5011681;28;20028;-70
2023/01/04 10:42:35;;;;;;;4.10;2.10;;;;;;;-144.47;77.55;52875.94;5012144;28;20034;-67
2023/01/04 10:45:19;;;;;;;6.38;1.80;;;;;;;-144.47;78.02;52883.91;5011561;28;20051;-68
2023/01/04 10:48:15;;;;;;;4.90;2.00;;;;;;;-144.47;77.76;52871.97;5010863;28;20033;-69
2023/01/04 10:50:57;;;;;;;4.97;1.80;;;;;;;-144.47;78.10;52873.97;5011737;28;20022;-69
2023/01/04 10:53:47;;;;;;;3.88;1.77;;;;;;;-144.47;77.96;52889.84;5012186;28;20507;-69
2023/01/04 10:56:32;;;;;;;3.67;1.38;;;;;;;-144.47;77.64;52860.06;5007471;28;20026;-66
2023/01/04 10:59:16;;;;;;;5.20;1.48;;;;;;;-144.47;77.76;52921.63;5006458;28;20092;-68
2023/01/04 11:01:57;;;;;;;4.65;1.50;;;;;;;-144.47;77.88;52875.94;5011590;28;20083;-68
2023/01/04 11:04:50;;;;;;;6.22;1.40;;;;;;;-144.47;78.24;52915.69;5008061;28;20042;-67
2023/01/04 11:07:23;;;;;;;6.93;1.70;;;;;;;-144.47;78.34;52901.78;5007209;28;20041;-68
2023/01/04 11:09:54;;;;;;;3.22;1.40;;;;;;;-144.47;78.34;52871.97;5004407;28;20495;-68
2023/01/04 11:12:22;;;;;;;3.38;1.38;;;;;;;-144.47;78.13;52860.06;5011841;28;20017;-66
2023/01/04 11:14:51;;;;;;;3.63;1.50;;;;;;;-144.47;77.80;52921.63;5010951;28;20022;-69
2023/01/04 11:17:16;;;;;;;2.50;1.20;;;;;;;-144.47;77.72;52891.84;5010768;28;20048;-70
2023/01/04 11:19:42;;;;;;;2.47;1.45;;;;;;;-144.47;77.15;52881.91;5011802;28;20014;-68
2023/01/04 11:22:14;;;;;;;2.45;1.00;;;;;;;-144.47;77.15;52868.00;5008422;28;20060;-68
2023/01/04 11:24:43;;;;;;;2.45;1.13;;;;;;;-144.47;77.39;52883.91;5010170;28;20619;-68
2023/01/04 11:27:16;;;;;;;4.63;1.27;;;;;;;-144.47;77.52;52864.03;5009255;28;20052;-68
2023/01/04 11:29:53;;;;;;;2.72;1.30;;;;;;;-144.47;77.55;52868.00;5005773;28;20033;-68
2023/01/04 11:32:48;;;;;;;2.55;1.15;;;;;;;-144.47;77.96;52868.00;5005997;28;20033;-65
2023/01/04 11:35:13;;;;;;;3.80;1.38;;;;;;;-144.47;78.84;52885.88;5008773;28;20495;-68
2023/01/04 11:37:40;;;;;;;2.97;1.20;;;;;;;-144.47;79.21;52885.88;4997310;28;20214;-67
2023/01/04 11:40:23;;;;;;;2.15;1.20;;;;;;;-144.47;80.41;52868.00;4991471;28;20033;-69
2023/01/04 11:42:51;;;;;;;6.32;1.13;;;;;;;-144.47;80.86;52895.81;5007716;28;20060;-68
2023/01/04 11:45:17;;;;;;;2.38;1.23;;;;;;;-144.47;81.37;52877.94;5009421;28;20157;-70
2023/01/04 11:47:53;;;;;;;2.75;1.30;;;;;;;-144.47;81.32;52875.94;5008707;28;20033;-68
2023/01/04 11:50:34;;;;;;;3.20;1.42;;;;;;;-144.47;82.12;52875.94;5007883;28;20116;-67
2023/01/04 11:53:00;;;;;;;2.55;1.30;;;;;;;-144.47;82.60;52895.81;5008569;28;20658;-67
2023/01/04 11:55:28;;;;;;;3.03;1.38;;;;;;;-144.47;82.59;52866.03;5008430;28;20665;-67
2023/01/04 11:58:07;;;;;;;3.42;1.58;;;;;;;-144.47;83.04;52901.78;5003397;28;20035;-66
2023/01/04 12:00:33;;;;;;;;;;;;;;;-144.47;83.49;52866.03;5010081;28;20317;-68
2023/01/04 12:03:16;;;;;;;2.40;1.55;;;;;;;-144.47;83.45;52887.88;5002597;28;20367;-67
2023/01/04 12:05:42;;;;;;;3.25;1.50;;;;;;;-144.47;83.55;52885.88;5006369;28;20026;-67
2023/01/04 12:08:22;;;;;;;3.33;1.60;;;;;;;-144.47;83.27;52895.81;5009389;28;20021;-66
2023/01/04 12:10:47;;;;;;;3.72;1.42;;;;;;;-144.47;82.89;52870.00;5002934;28;20169;-69
2023/01/04 12:13:13;;;;;;;2.33;1.15;;;;;;;-144.47;82.27;52887.88;5010078;28;20109;-68